Time;durP1;ratioP1;P1;durP2;ratioP2;P2;SDS_P1;SDS_P2;PMS_P1;PMS_P2;Temp;Humidity;BMP_temperature;BMP_pressure;BME280_temperature;BME280_humidity;BME280_pressure;Samples;Min_cycle;Max_cycle;Signal;HPM_P1;HPM_P2
2023/03/22 00:00:13;;;;;;;8.82;6.20;;;;;;;8.68;85.98;99372.81;346777;28;1539;-70
2023/03/22 00:00:26;;;;;;;8.50;6.32;;;;;;;8.73;85.52;99365.75;345840;28;1785;-69
2023/03/22 00:00:38;;;;;;;8.63;6.32;;;;;;;8.77;85.64;99367.38;346303;28;1236;-70
2023/03/22 00:00:52;;;;;;;10.30;6.38;;;;;;;8.79;85.58;99369.88;344866;28;2959;-69
2023/03/22 00:01:10;;;;;;;9.80;6.35;;;;;;;8.85;85.96;99363.69;348841;28;1053;-70
2023/03/22 00:01:23;;;;;;;8.70;6.20;;;;;;;8.85;85.88;99363.69;348859;28;1029;-69
2023/03/22 00:01:35;;;;;;;9.32;6.20;;;;;;;8.87;85.86;99367.91;349016;28;1245;-70
2023/03/22 00:01:47;;;;;;;9.68;6.20;;;;;;;8.89;85.76;99365.28;347497;28;1323;-70
2023/03/22 00:01:59;;;;;;;8.90;5.97;;;;;;;8.91;85.69;99371.28;347341;28;1177;-70
2023/03/22 00:02:11;;;;;;;9.00;6.00;;;;;;;8.92;85.76;99360.03;347406;28;1173;-70
2023/03/22 00:02:24;;;;;;;8.38;6.10;;;;;;;8.93;85.43;99366.88;347069;28;1378;-70
2023/03/22 00:02:37;;;;;;;9.32;5.90;;;;;;;8.91;84.89;99368.69;347207;28;1058;-70
2023/03/22 00:02:49;;;;;;;10.35;5.93;;;;;;;8.93;85.25;99366.88;347182;28;1290;-70
2023/03/22 00:03:02;;;;;;;9.23;5.80;;;;;;;8.92;85.22;99362.63;346883;28;1816;-70
2023/03/22 00:03:15;;;;;;;8.73;5.60;;;;;;;8.94;85.21;99366.00;346236;28;1595;-70
2023/03/22 00:03:27;;;;;;;8.85;5.80;;;;;;;8.92;85.26;99362.63;344832;28;1095;-70
2023/03/22 00:03:39;;;;;;;7.65;5.78;;;;;;;8.93;85.17;99361.69;344622;28;1247;-70
2023/03/22 00:03:51;;;;;;;8.27;5.75;;;;;;;8.93;85.09;99366.88;345435;28;1802;-69
2023/03/22 00:04:04;;;;;;;7.93;5.63;;;;;;;8.93;85.29;99364.28;346115;28;1090;-69
2023/03/22 00:04:16;;;;;;;7.55;5.65;;;;;;;8.91;85.22;99356.56;346351;28;1152;-70
2023/03/22 00:04:28;;;;;;;7.75;5.70;;;;;;;8.94;85.05;99363.41;344839;28;1026;-69
2023/03/22 00:04:41;;;;;;;9.55;5.65;;;;;;;8.94;85.04;99359.06;345054;28;1041;-69
2023/03/22 00:04:53;;;;;;;9.77;5.93;;;;;;;8.97;85.09;99358.13;344833;28;1765;-69
2023/03/22 00:05:06;;;;;;;9.13;6.00;;;;;;;8.96;84.73;99353.84;343262;28;1272;-70
2023/03/22 00:05:18;;;;;;;9.05;6.03;;;;;;;8.97;85.02;99352.94;344622;28;1222;-70
2023/03/22 00:05:30;;;;;;;9.90;5.78;;;;;;;8.98;84.77;99359.84;343885;28;1800;-69
2023/03/22 00:05:42;;;;;;;8.32;5.68;;;;;;;9.00;84.95;99363.22;344733;28;1607;-69
2023/03/22 00:05:57;;;;;;;7.80;5.57;;;;;;;9.02;84.95;99356.25;345265;28;1244;-70
2023/03/22 00:06:09;;;;;;;8.65;5.78;;;;;;;9.07;84.62;99358.69;345945;28;1191;-70
2023/03/22 00:06:22;;;;;;;8.93;5.72;;;;;;;9.09;84.59;99357.72;344249;28;1843;-70
2023/03/22 00:06:36;;;;;;;8.60;5.90;;;;;;;9.10;84.29;99359.44;345651;28;1175;-69
2023/03/22 00:06:48;;;;;;;8.77;5.95;;;;;;;9.13;84.50;99358.50;345894;28;1335;-69
2023/03/22 00:07:00;;;;;;;9.23;5.72;;;;;;;9.13;84.29;99356.75;345974;28;1051;-69
2023/03/22 00:07:12;;;;;;;9.55;5.57;;;;;;;9.13;84.35;99359.34;345949;28;1366;-70
2023/03/22 00:07:25;;;;;;;11.43;5.70;;;;;;;9.13;84.37;99359.34;346002;28;1334;-69
2023/03/22 00:07:39;;;;;;;10.50;5.45;;;;;;;9.15;84.21;99352.34;345188;28;1681;-70
2023/03/22 00:07:56;;;;;;;8.13;5.47;;;;;;;9.17;84.12;99355.75;346321;28;1442;-70
2023/03/22 00:08:09;;;;;;;9.27;5.80;;;;;;;9.18;84.29;99357.47;344674;28;1019;-70
2023/03/22 00:08:21;;;;;;;8.73;5.65;;;;;;;9.19;84.36;99353.97;344788;28;1099;-69
2023/03/22 00:08:33;;;;;;;7.72;5.60;;;;;;;9.22;84.34;99357.38;345229;28;1106;-70
2023/03/22 00:08:49;;;;;;;7.70;5.82;;;;;;;9.24;84.22;99355.59;345439;28;1346;-70
2023/03/22 00:09:02;;;;;;;7.15;5.75;;;;;;;9.27;84.04;99360.66;346432;28;1158;-69
2023/03/22 00:09:14;;;;;;;6.95;5.70;;;;;;;9.29;84.15;99358.84;345442;28;1782;-70
2023/03/22 00:09:26;;;;;;;8.30;5.80;;;;;;;9.30;83.72;99356.22;347317;28;1737;-69
2023/03/22 00:09:38;;;;;;;8.73;5.68;;;;;;;9.34;84.08;99356.97;347813;28;1252;-70
2023/03/22 00:09:50;;;;;;;8.65;5.68;;;;;;;9.35;83.95;99353.47;347283;28;1407;-70
2023/03/22 00:10:04;;;;;;;8.90;5.60;;;;;;;9.37;83.79;99356.88;347811;28;1077;-70
2023/03/22 00:10:16;;;;;;;10.25;5.90;;;;;;;9.38;83.50;99358.56;346839;28;801;-70
2023/03/22 00:10:28;;;;;;;9.05;5.72;;;;;;;9.40;83.54;99356.78;346323;28;1015;-70
2023/03/22 00:10:41;;;;;;;8.07;5.88;;;;;;;9.39;83.67;99350.72;346488;28;1140;-70
2023/03/22 00:10:53;;;;;;;7.93;5.93;;;;;;;9.42;83.52;99354.97;346176;28;1318;-70
2023/03/22 00:11:06;;;;;;;8.77;6.05;;;;;;;9.43;83.82;99361.00;346049;28;1099;-70
2023/03/22 00:11:23;;;;;;;9.25;5.70;;;;;;;9.42;83.38;99356.72;345300;28;1815;-70
2023/03/22 00:11:35;;;;;;;8.65;5.38;;;;;;;9.42;83.88;99359.31;346162;28;1031;-70
2023/03/22 00:11:49;;;;;;;7.45;5.47;;;;;;;9.46;83.61;99360.94;346347;28;1264;-70
2023/03/22 00:12:01;;;;;;;7.78;5.53;;;;;;;9.48;83.25;99356.53;346219;28;1070;-70
2023/03/22 00:12:13;;;;;;;8.30;5.55;;;;;;;9.50;83.11;99360.75;346006;28;1180;-70
2023/03/22 00:12:25;;;;;;;8.00;5.55;;;;;;;9.52;83.24;99356.38;345569;28;1215;-69
2023/03/22 00:12:37;;;;;;;8.07;5.60;;;;;;;9.54;83.04;99354.56;346386;28;1273;-70
2023/03/22 00:12:49;;;;;;;7.65;5.80;;;;;;;9.56;82.63;99352.78;345594;28;1704;-69
2023/03/22 00:13:02;;;;;;;7.25;6.00;;;;;;;9.57;82.43;99351.88;345216;28;1913;-70
2023/03/22 00:13:14;;;;;;;8.68;5.90;;;;;;;9.58;82.63;99360.53;346147;28;1094;-70
2023/03/22 00:13:26;;;;;;;8.98;5.78;;;;;;;9.57;82.34;99354.47;346592;28;873;-69
2023/03/22 00:13:41;;;;;;;9.02;5.80;;;;;;;9.57;82.47;99349.28;344897;28;2126;-69
2023/03/22 00:13:53;;;;;;;8.45;5.93;;;;;;;9.58;82.20;99356.16;345113;28;1075;-69
2023/03/22 00:14:06;;;;;;;8.68;5.80;;;;;;;9.60;81.90;99351.78;345112;28;1078;-70
2023/03/22 00:14:18;;;;;;;9.02;5.85;;;;;;;9.62;81.91;99356.06;345106;28;1062;-69
2023/03/22 00:14:29;;;;;;;7.85;5.68;;;;;;;9.58;81.70;99350.97;345410;28;1101;-69
2023/03/22 00:14:41;;;;;;;6.97;5.60;;;;;;;9.61;82.00;99355.22;346580;28;1054;-70
2023/03/22 00:14:54;;;;;;;7.28;5.57;;;;;;;9.59;81.86;99352.66;346460;28;1268;-70
2023/03/22 00:15:06;;;;;;;7.32;5.65;;;;;;;9.62;81.77;99350.88;346556;28;1128;-69
2023/03/22 00:15:18;;;;;;;8.07;5.80;;;;;;;9.63;81.82;99347.38;346540;28;1092;-70
2023/03/22 00:15:30;;;;;;;7.90;5.70;;;;;;;9.63;81.91;99347.38;345721;28;1800;-69
2023/03/22 00:15:44;;;;;;;8.98;5.70;;;;;;;9.65;81.44;99345.59;346387;28;1096;-70
2023/03/22 00:15:56;;;;;;;8.23;5.57;;;;;;;9.67;81.68;99351.56;344681;28;4148;-70
2023/03/22 00:16:09;;;;;;;7.55;5.53;;;;;;;9.69;81.60;99360.16;346201;28;1172;-69
2023/03/22 00:16:22;;;;;;;6.75;5.60;;;;;;;9.68;81.25;99345.47;346679;28;1046;-69
2023/03/22 00:16:34;;;;;;;7.68;5.90;;;;;;;9.69;81.34;99348.00;346109;28;1158;-70
2023/03/22 00:16:47;;;;;;;7.97;5.78;;;;;;;9.69;81.21;99353.19;346058;28;1369;-69
2023/03/22 00:16:59;;;;;;;8.38;5.90;;;;;;;9.70;80.71;99343.66;346213;28;1298;-69
2023/03/22 00:17:12;;;;;;;7.63;5.82;;;;;;;9.71;81.03;99346.22;345950;28;1027;-69
2023/03/22 00:17:25;;;;;;;8.82;5.88;;;;;;;9.70;80.99;99349.72;346101;28;1350;-69
2023/03/22 00:17:37;;;;;;;8.40;5.65;;;;;;;9.66;81.07;99344.66;345298;28;1679;-70
2023/03/22 00:17:49;;;;;;;7.88;5.53;;;;;;;9.64;81.45;99349.06;345943;28;1281;-69
2023/03/22 00:18:02;;;;;;;8.07;5.80;;;;;;;9.63;81.50;99348.22;346241;28;1069;-70
2023/03/22 00:18:17;;;;;;;8.23;5.97;;;;;;;9.62;81.33;99345.66;346158;28;1189;-69
2023/03/22 00:18:29;;;;;;;8.82;5.93;;;;;;;9.62;81.76;99343.94;346152;28;1123;-69
2023/03/22 00:18:41;;;;;;;8.95;6.05;;;;;;;9.63;81.44;99348.22;346262;28;1228;-70
2023/03/22 00:18:53;;;;;;;8.63;5.75;;;;;;;9.64;81.44;99343.88;346252;28;1310;-70
2023/03/22 00:19:05;;;;;;;8.30;5.60;;;;;;;9.61;81.78;99344.84;346135;28;1123;-70
2023/03/22 00:19:17;;;;;;;8.40;5.70;;;;;;;9.64;81.83;99349.06;345435;28;1661;-70
2023/03/22 00:19:28;;;;;;;7.82;5.70;;;;;;;9.65;81.64;99346.41;347256;28;1813;-70
2023/03/22 00:19:41;;;;;;;7.32;5.70;;;;;;;9.66;81.54;99348.13;346090;28;1043;-69
2023/03/22 00:19:57;;;;;;;8.85;5.97;;;;;;;9.69;81.40;99352.38;346274;28;1368;-70
2023/03/22 00:20:10;;;;;;;8.68;6.00;;;;;;;9.70;81.09;99344.53;346419;28;1187;-69
2023/03/22 00:20:22;;;;;;;7.63;5.70;;;;;;;9.72;81.56;99342.72;346497;28;1103;-69
2023/03/22 00:20:38;;;;;;;7.70;5.65;;;;;;;9.75;81.02;99339.19;346516;28;978;-70
2023/03/22 00:20:53;;;;;;;7.97;5.90;;;;;;;9.74;81.07;99346.13;346329;28;1390;-69
2023/03/22 00:21:09;;;;;;;7.43;5.72;;;;;;;9.76;80.63;99348.69;346522;28;1154;-70
2023/03/22 00:21:21;;;;;;;7.47;5.47;;;;;;;9.77;80.55;99345.16;346439;28;1802;-70
2023/03/22 00:21:33;;;;;;;7.65;5.32;;;;;;;9.78;80.51;99352.91;347781;28;1134;-69
2023/03/22 00:21:45;;;;;;;6.82;5.60;;;;;;;9.79;80.67;99348.56;347301;28;1472;-69
2023/03/22 00:21:57;;;;;;;6.50;5.50;;;;;;;9.76;80.42;99343.47;347543;28;1743;-70
2023/03/22 00:22:10;;;;;;;7.07;5.72;;;;;;;9.78;80.68;99346.88;347828;28;1173;-69
2023/03/22 00:22:23;;;;;;;7.47;5.97;;;;;;;9.80;80.65;99345.06;347881;28;1089;-69
2023/03/22 00:22:35;;;;;;;7.10;5.80;;;;;;;9.82;80.63;99342.41;347773;28;1288;-71
2023/03/22 00:22:48;;;;;;;7.15;5.72;;;;;;;9.82;80.72;99339.81;347151;28;1287;-69
2023/03/22 00:23:01;;;;;;;7.60;5.70;;;;;;;9.81;80.52;99346.75;346749;28;2024;-70
2023/03/22 00:23:13;;;;;;;7.30;5.68;;;;;;;9.80;80.55;99339.88;346345;28;1577;-70
2023/03/22 00:23:29;;;;;;;7.93;5.72;;;;;;;9.78;80.80;99345.13;346466;28;1063;-70
2023/03/22 00:23:42;;;;;;;8.50;5.72;;;;;;;9.80;81.13;99342.47;346215;28;1177;-69
2023/03/22 00:23:54;;;;;;;8.05;6.05;;;;;;;9.81;81.25;99341.56;346382;28;1299;-70
2023/03/22 00:24:06;;;;;;;8.20;6.00;;;;;;;9.82;80.94;99340.69;346259;28;1093;-70
2023/03/22 00:24:19;;;;;;;7.90;5.95;;;;;;;9.84;81.08;99341.47;345889;28;1281;-69
2023/03/22 00:24:32;;;;;;;9.75;6.10;;;;;;;9.82;80.74;99343.28;346157;28;1015;-70
2023/03/22 00:24:44;;;;;;;10.38;5.75;;;;;;;9.84;80.62;99341.47;345553;28;1870;-70
2023/03/22 00:24:55;;;;;;;10.68;5.82;;;;;;;9.85;80.44;99337.97;344886;28;1081;-69
2023/03/22 00:25:08;;;;;;;8.60;6.05;;;;;;;9.87;80.47;99346.53;344898;28;1033;-69
2023/03/22 00:25:20;;;;;;;8.02;6.15;;;;;;;9.85;80.73;99340.56;344706;28;1224;-70
2023/03/22 00:25:32;;;;;;;9.20;6.07;;;;;;;9.85;80.30;99345.75;344869;28;1224;-70
2023/03/22 00:25:46;;;;;;;10.48;5.97;;;;;;;9.85;80.54;99343.16;345128;28;1430;-70
2023/03/22 00:25:59;;;;;;;8.90;5.68;;;;;;;9.85;80.72;99344.91;344635;28;1059;-70
2023/03/22 00:26:12;;;;;;;8.43;5.60;;;;;;;9.83;80.84;99344.94;345453;28;1023;-69
2023/03/22 00:26:24;;;;;;;7.82;5.50;;;;;;;9.84;80.91;99340.59;346342;28;1185;-69
2023/03/22 00:26:36;;;;;;;7.93;5.78;;;;;;;9.85;80.92;99334.53;346334;28;1172;-69
2023/03/22 00:26:48;;;;;;;7.05;5.57;;;;;;;9.86;80.44;99334.47;344949;28;1816;-69
2023/03/22 00:27:00;;;;;;;7.15;5.40;;;;;;;9.88;80.83;99343.06;345864;28;1751;-69
2023/03/22 00:27:12;;;;;;;8.23;5.47;;;;;;;9.90;80.86;99340.38;346038;28;1241;-69
2023/03/22 00:27:24;;;;;;;9.10;5.68;;;;;;;9.90;80.51;99333.47;346424;28;1366;-69
2023/03/22 00:27:37;;;;;;;8.68;5.80;;;;;;;9.86;80.92;99339.66;346144;28;1146;-69
2023/03/22 00:27:49;;;;;;;8.27;5.75;;;;;;;9.86;80.94;99341.41;346236;28;1791;-69
2023/03/22 00:28:01;;;;;;;8.93;5.85;;;;;;;9.87;80.86;99341.34;346072;28;1045;-69
2023/03/22 00:28:15;;;;;;;9.10;6.00;;;;;;;9.88;80.66;99337.88;345889;28;1756;-69
2023/03/22 00:28:27;;;;;;;7.38;5.80;;;;;;;9.90;80.73;99336.06;346791;28;1643;-69
2023/03/22 00:28:39;;;;;;;8.82;5.75;;;;;;;9.89;80.49;99333.50;347854;28;1204;-69
2023/03/22 00:28:51;;;;;;;10.68;5.85;;;;;;;9.89;80.78;99338.72;347193;28;1447;-69
2023/03/22 00:29:03;;;;;;;11.00;5.88;;;;;;;9.90;80.55;99338.66;347853;28;1896;-69
2023/03/22 00:29:16;;;;;;;8.48;5.50;;;;;;;9.92;80.46;99338.59;346240;28;1286;-69
2023/03/22 00:29:28;;;;;;;7.78;5.43;;;;;;;9.91;80.43;99335.16;344986;28;1071;-69
2023/03/22 00:29:40;;;;;;;7.13;5.72;;;;;;;9.91;80.77;99336.91;345110;28;1322;-70
2023/03/22 00:29:52;;;;;;;7.72;5.90;;;;;;;9.92;80.63;99344.66;346238;28;1248;-69
2023/03/22 00:30:05;;;;;;;9.15;5.80;;;;;;;9.94;80.89;99342.84;346215;28;1109;-69
2023/03/22 00:30:17;;;;;;;9.60;5.53;;;;;;;9.94;80.72;99337.66;346284;28;941;-70
2023/03/22 00:30:29;;;;;;;9.20;5.78;;;;;;;9.94;80.47;99332.47;345026;28;1130;-70
2023/03/22 00:30:42;;;;;;;8.38;5.95;;;;;;;9.91;80.92;99337.75;344811;28;1075;-70
2023/03/22 00:30:57;;;;;;;7.90;6.03;;;;;;;9.92;81.10;99331.66;344853;28;1216;-70
2023/03/22 00:31:09;;;;;;;7.32;5.78;;;;;;;9.93;80.66;99335.94;344484;28;1838;-71
2023/03/22 00:31:21;;;;;;;8.13;5.85;;;;;;;9.95;80.67;99339.34;343378;28;3387;-70
2023/03/22 00:31:33;;;;;;;9.65;6.20;;;;;;;9.95;80.46;99336.72;345003;28;1117;-70
2023/03/22 00:31:45;;;;;;;9.93;6.10;;;;;;;9.93;80.58;99338.53;344327;28;1766;-70
2023/03/22 00:31:57;;;;;;;8.45;5.53;;;;;;;9.93;81.13;99338.53;344899;28;1175;-71
2023/03/22 00:32:10;;;;;;;7.47;5.40;;;;;;;9.91;80.73;99332.56;344777;28;1239;-70
2023/03/22 00:32:22;;;;;;;8.00;5.75;;;;;;;9.92;81.05;99338.59;345823;28;1183;-70
2023/03/22 00:32:35;;;;;;;8.20;5.80;;;;;;;9.94;80.88;99329.84;346230;28;1190;-70
2023/03/22 00:32:47;;;;;;;7.97;5.68;;;;;;;9.94;80.97;99331.59;346318;28;1398;-70
2023/03/22 00:32:59;;;;;;;7.90;5.63;;;;;;;9.96;80.82;99333.25;346386;28;1053;-70
2023/03/22 00:33:11;;;;;;;8.00;5.60;;;;;;;9.94;80.76;99340.25;345691;28;1509;-70
2023/03/22 00:33:24;;;;;;;7.38;5.68;;;;;;;9.95;80.61;99328.09;346450;28;1538;-70
2023/03/22 00:33:36;;;;;;;7.05;5.78;;;;;;;9.98;80.98;99341.00;347848;28;1042;-70
2023/03/22 00:33:48;;;;;;;7.45;5.90;;;;;;;9.98;80.44;99334.03;346306;28;1740;-70
2023/03/22 00:34:00;;;;;;;8.43;6.10;;;;;;;9.97;80.38;99332.34;345078;28;1081;-70
2023/03/22 00:34:12;;;;;;;8.18;5.85;;;;;;;9.98;80.45;99334.03;345238;28;1130;-70
2023/03/22 00:34:25;;;;;;;7.60;5.65;;;;;;;9.98;80.38;99341.84;345200;28;1234;-70
2023/03/22 00:34:37;;;;;;;7.40;5.65;;;;;;;10.01;80.45;99327.88;345957;28;1661;-71
2023/03/22 00:34:49;;;;;;;8.05;5.82;;;;;;;10.03;80.48;99333.03;346577;28;1771;-70
2023/03/22 00:35:02;;;;;;;8.10;5.90;;;;;;;10.03;80.28;99326.09;346726;28;740;-70
2023/03/22 00:35:14;;;;;;;9.43;6.20;;;;;;;10.05;80.46;99331.22;347034;28;1836;-70
2023/03/22 00:35:26;;;;;;;10.82;6.13;;;;;;;10.07;80.22;99329.44;346430;28;2051;-70
2023/03/22 00:35:38;;;;;;;10.77;6.05;;;;;;;10.08;80.44;99329.38;345449;28;1808;-70
2023/03/22 00:35:52;;;;;;;8.68;5.90;;;;;;;10.10;80.31;99329.28;346026;28;1311;-70
2023/03/22 00:36:08;;;;;;;8.13;6.30;;;;;;;10.10;80.25;99329.28;345091;28;1178;-70
2023/03/22 00:36:19;;;;;;;9.10;6.57;;;;;;;10.09;80.22;99333.66;344477;28;1110;-70
2023/03/22 00:36:31;;;;;;;9.32;6.60;;;;;;;10.11;80.16;99328.41;345081;28;1182;-70
2023/03/22 00:36:43;;;;;;;9.45;6.68;;;;;;;10.10;80.38;99327.56;344921;28;1322;-70
2023/03/22 00:36:55;;;;;;;9.00;6.85;;;;;;;10.08;80.24;99328.50;346050;28;1078;-70
2023/03/22 00:37:07;;;;;;;8.85;6.63;;;;;;;10.10;80.25;99337.09;346083;28;1272;-70
2023/03/22 00:37:19;;;;;;;9.02;6.38;;;;;;;10.13;80.17;99337.00;346128;28;1062;-70
2023/03/22 00:37:37;;;;;;;8.88;6.30;;;;;;;10.15;79.98;99332.59;345472;28;1831;-70
2023/03/22 00:37:50;;;;;;;10.57;6.50;;;;;;;10.16;79.91;99326.47;345695;28;1260;-70
2023/03/22 00:38:04;;;;;;;10.55;6.57;;;;;;;10.13;79.76;99330.03;344963;28;1074;-70
2023/03/22 00:38:17;;;;;;;8.75;6.40;;;;;;;10.14;80.21;99326.56;344805;28;1094;-70
2023/03/22 00:38:35;;;;;;;8.75;6.40;;;;;;;10.14;80.00;99328.28;344600;28;1826;-70
2023/03/22 00:38:54;;;;;;;8.50;6.55;;;;;;;10.15;79.90;99330.00;344798;28;1034;-70
2023/03/22 00:39:09;;;;;;;8.68;6.32;;;;;;;10.15;80.24;99330.84;344608;28;1039;-70
2023/03/22 00:39:21;;;;;;;8.93;6.45;;;;;;;10.15;79.81;99335.19;346219;28;1350;-70
2023/03/22 00:39:33;;;;;;;8.80;6.85;;;;;;;10.17;79.85;99335.97;346061;28;1772;-70
2023/03/22 00:39:45;;;;;;;9.25;6.93;;;;;;;10.15;80.21;99332.59;345835;28;1656;-70
2023/03/22 00:39:56;;;;;;;10.30;7.30;;;;;;;10.11;79.83;99329.25;346156;28;1093;-70
2023/03/22 00:40:12;;;;;;;10.40;7.20;;;;;;;10.14;80.39;99323.09;347426;28;1128;-70
2023/03/22 00:40:24;;;;;;;9.55;6.70;;;;;;;10.14;80.15;99333.47;347290;28;1299;-70
2023/03/22 00:40:36;;;;;;;8.93;6.65;;;;;;;10.14;80.06;99329.16;347331;28;1592;-70
2023/03/22 00:40:49;;;;;;;9.60;6.60;;;;;;;10.16;80.07;99326.47;346641;28;1323;-70
2023/03/22 00:41:04;;;;;;;9.00;6.60;;;;;;;10.17;79.90;99333.38;345955;28;1122;-70
2023/03/22 00:41:19;;;;;;;9.23;6.82;;;;;;;10.16;80.01;99322.16;346893;28;1810;-70
2023/03/22 00:41:31;;;;;;;10.30;7.20;;;;;;;10.17;79.56;99333.38;346170;28;1029;-70
2023/03/22 00:41:46;;;;;;;9.57;7.13;;;;;;;10.17;79.68;99330.78;345878;28;1277;-70
2023/03/22 00:41:58;;;;;;;8.57;7.05;;;;;;;10.16;79.38;99324.75;345118;28;1090;-70
2023/03/22 00:42:10;;;;;;;9.80;7.38;;;;;;;10.18;79.61;99325.53;344555;28;2174;-70
2023/03/22 00:42:22;;;;;;;9.95;7.57;;;;;;;10.19;79.62;99326.38;345509;28;1671;-70
2023/03/22 00:42:39;;;;;;;9.45;7.47;;;;;;;10.20;79.38;99328.94;346236;28;1057;-70
2023/03/22 00:42:51;;;;;;;10.55;7.25;;;;;;;10.22;79.25;99328.84;346244;28;1196;-70
2023/03/22 00:43:02;;;;;;;11.20;7.22;;;;;;;10.22;79.34;99321.06;346448;28;1054;-70
2023/03/22 00:43:15;;;;;;;10.65;7.30;;;;;;;10.24;79.60;99323.59;346393;28;1058;-70
2023/03/22 00:43:27;;;;;;;8.95;7.22;;;;;;;10.25;79.57;99326.16;345863;28;2211;-70
2023/03/22 00:43:39;;;;;;;8.90;7.18;;;;;;;10.24;79.71;99326.22;346229;28;1070;-70
2023/03/22 00:43:52;;;;;;;8.38;7.05;;;;;;;10.25;80.03;99326.16;346276;28;1226;-70
2023/03/22 00:44:04;;;;;;;9.23;7.10;;;;;;;10.24;79.65;99327.06;346382;28;1251;-70
2023/03/22 00:44:16;;;;;;;9.57;7.22;;;;;;;10.25;79.68;99331.34;346471;28;1064;-70
2023/03/22 00:44:27;;;;;;;9.07;6.95;;;;;;;10.26;79.77;99322.66;346545;28;1019;-70
2023/03/22 00:44:40;;;;;;;9.20;6.63;;;;;;;10.23;79.40;99325.38;345853;28;1077;-70
2023/03/22 00:44:51;;;;;;;10.32;6.85;;;;;;;10.23;79.58;99327.13;345491;28;1943;-70
2023/03/22 00:45:05;;;;;;;10.25;7.05;;;;;;;10.24;80.00;99319.28;347165;28;1694;-70
2023/03/22 00:45:17;;;;;;;10.63;7.32;;;;;;;10.25;79.52;99320.97;346147;28;1074;-70
2023/03/22 00:45:29;;;;;;;9.40;6.65;;;;;;;10.25;79.42;99331.34;346088;28;1256;-70
2023/03/22 00:45:41;;;;;;;9.38;6.35;;;;;;;10.27;79.31;99324.34;344442;28;1044;-70
2023/03/22 00:45:53;;;;;;;9.73;6.38;;;;;;;10.26;79.28;99321.81;344728;28;1059;-70
2023/03/22 00:46:06;;;;;;;10.40;6.50;;;;;;;10.24;79.18;99319.28;344802;28;1070;-70
2023/03/22 00:46:19;;;;;;;8.90;6.68;;;;;;;10.23;79.24;99322.78;343758;28;1836;-70
2023/03/22 00:46:31;;;;;;;8.60;6.65;;;;;;;10.24;79.28;99319.28;343342;28;1035;-70
2023/03/22 00:46:44;;;;;;;8.60;6.40;;;;;;;10.20;79.14;99318.53;344445;28;3099;-70
2023/03/22 00:46:58;;;;;;;8.27;6.20;;;;;;;10.16;79.11;99316.09;346300;28;1074;-70
2023/03/22 00:47:10;;;;;;;7.68;6.28;;;;;;;10.12;79.10;99319.69;346240;28;1074;-70
2023/03/22 00:47:22;;;;;;;8.75;6.90;;;;;;;10.12;79.40;99317.09;346115;28;1078;-70
2023/03/22 00:47:34;;;;;;;8.73;7.05;;;;;;;10.00;79.44;99321.84;346151;28;1144;-70
2023/03/22 00:47:46;;;;;;;7.78;6.78;;;;;;;10.00;79.65;99321.84;346148;28;1349;-70
2023/03/22 00:47:58;;;;;;;7.68;6.47;;;;;;;9.99;79.74;99320.16;346427;28;1081;-70
2023/03/22 00:48:11;;;;;;;8.63;6.07;;;;;;;10.02;79.60;99318.34;346279;28;1065;-70
2023/03/22 00:48:23;;;;;;;9.52;6.15;;;;;;;10.02;79.95;99313.16;345696;28;1690;-70
2023/03/22 00:48:35;;;;;;;9.13;6.13;;;;;;;10.00;79.78;99315.81;346090;28;1113;-70
2023/03/22 00:48:53;;;;;;;8.65;6.65;;;;;;;9.99;79.82;99314.94;346358;28;1393;-70
2023/03/22 00:49:05;;;;;;;8.60;7.25;;;;;;;10.02;79.65;99319.22;346322;28;1201;-70
2023/03/22 00:49:17;;;;;;;10.02;6.90;;;;;;;10.02;79.69;99318.34;346199;28;1291;-70
2023/03/22 00:49:30;;;;;;;10.18;6.75;;;;;;;9.96;79.64;99309.88;346473;28;1302;-70
2023/03/22 00:49:42;;;;;;;9.20;8.02;;;;;;;9.99;79.79;99308.91;346340;28;1267;-70
2023/03/22 00:49:54;;;;;;;10.00;9.00;;;;;;;10.00;79.86;99319.25;345776;28;1443;-70
2023/03/22 00:50:06;;;;;;;10.80;9.70;;;;;;;10.02;79.82;99313.16;346445;28;1243;-70
2023/03/22 00:50:18;;;;;;;11.90;10.73;;;;;;;10.04;79.58;99316.53;345514;28;1596;-70
2023/03/22 00:50:30;;;;;;;12.55;10.23;;;;;;;10.09;79.90;99314.63;346964;28;1700;-70
2023/03/22 00:50:42;;;;;;;13.43;8.95;;;;;;;10.10;79.59;99316.31;347827;28;1084;-70
2023/03/22 00:50:54;;;;;;;10.70;7.97;;;;;;;10.11;79.48;99313.66;344748;28;1300;-71
2023/03/22 00:51:07;;;;;;;8.85;7.65;;;;;;;10.13;79.40;99305.81;345098;28;1078;-70
2023/03/22 00:51:19;;;;;;;8.65;7.50;;;;;;;10.14;79.35;99312.69;345085;28;1082;-70
2023/03/22 00:51:31;;;;;;;9.15;7.55;;;;;;;10.14;79.34;99308.38;344927;28;1196;-70
2023/03/22 00:51:43;;;;;;;9.10;7.38;;;;;;;10.14;79.38;99318.75;344789;28;1381;-70
2023/03/22 00:51:55;;;;;;;9.07;7.15;;;;;;;10.15;79.16;99309.22;346367;28;1018;-70
2023/03/22 00:52:07;;;;;;;8.68;6.55;;;;;;;10.16;79.11;99310.91;345743;28;1743;-70
2023/03/22 00:52:20;;;;;;;7.90;6.18;;;;;;;10.18;79.20;99309.09;347170;28;1575;-68
2023/03/22 00:52:32;;;;;;;7.90;6.13;;;;;;;10.19;79.07;99316.00;347822;28;1247;-68
2023/03/22 00:52:44;;;;;;;7.85;6.20;;;;;;;10.20;79.18;99309.88;347048;28;1815;-68
2023/03/22 00:52:56;;;;;;;7.68;6.00;;;;;;;10.22;79.10;99310.66;346231;28;1109;-70
2023/03/22 00:53:08;;;;;;;7.72;6.00;;;;;;;10.23;78.92;99312.38;345568;28;1746;-70
2023/03/22 00:53:20;;;;;;;6.78;5.70;;;;;;;10.25;79.03;99310.56;345726;28;1800;-70
2023/03/22 00:53:33;;;;;;;7.25;5.93;;;;;;;10.24;78.66;99303.69;346062;28;1047;-70
2023/03/22 00:53:48;;;;;;;8.10;6.10;;;;;;;10.25;78.54;99304.53;346219;28;1378;-70
2023/03/22 00:54:00;;;;;;;8.40;5.82;;;;;;;10.21;78.60;99306.41;346376;28;927;-70
2023/03/22 00:54:12;;;;;;;7.88;5.65;;;;;;;10.24;78.53;99314.09;346401;28;1082;-70
2023/03/22 00:54:24;;;;;;;7.93;5.90;;;;;;;10.25;78.50;99305.38;346445;28;1065;-70
2023/03/22 00:54:36;;;;;;;7.72;5.72;;;;;;;10.26;78.51;99301.88;346588;28;744;-70
2023/03/22 00:54:48;;;;;;;7.90;5.75;;;;;;;10.27;78.50;99302.72;346178;28;1355;-70
2023/03/22 00:55:00;;;;;;;6.68;5.70;;;;;;;10.26;78.27;99301.03;346274;28;1057;-70
2023/03/22 00:55:12;;;;;;;7.13;5.63;;;;;;;10.20;78.28;99313.34;345407;28;1756;-70
2023/03/22 00:55:24;;;;;;;7.78;5.85;;;;;;;10.22;78.38;99308.06;347032;28;1802;-70
2023/03/22 00:55:36;;;;;;;7.40;5.43;;;;;;;10.23;78.59;99302.00;347460;28;1217;-70
2023/03/22 00:55:48;;;;;;;7.05;5.20;;;;;;;10.23;78.64;99312.38;347223;28;1519;-70
2023/03/22 00:56:00;;;;;;;7.68;5.68;;;;;;;10.22;78.44;99310.66;347574;28;1086;-70
2023/03/22 00:56:12;;;;;;;8.00;6.15;;;;;;;10.20;78.75;99296.88;347247;28;1082;-70
2023/03/22 00:56:27;;;;;;;7.40;5.95;;;;;;;10.19;78.73;99301.25;346158;28;1054;-70
2023/03/22 00:56:39;;;;;;;7.95;5.53;;;;;;;10.18;78.82;99303.91;346196;28;1070;-70
2023/03/22 00:56:51;;;;;;;9.60;5.68;;;;;;;10.05;78.48;99307.84;345793;28;1628;-70
2023/03/22 00:57:03;;;;;;;8.00;5.47;;;;;;;10.04;78.79;99303.56;346191;28;1290;-70
2023/03/22 00:57:16;;;;;;;6.70;5.53;;;;;;;10.03;78.97;99302.72;345273;28;1991;-70
2023/03/22 00:57:28;;;;;;;6.57;5.20;;;;;;;10.02;78.76;99302.75;344837;28;1875;-70
2023/03/22 00:57:40;;;;;;;6.97;5.35;;;;;;;9.90;78.86;99302.31;345077;28;1771;-70
2023/03/22 00:57:52;;;;;;;6.63;5.35;;;;;;;9.67;79.23;99295.31;343960;28;3054;-70
2023/03/22 00:58:04;;;;;;;7.43;5.50;;;;;;;9.62;79.86;99306.75;345798;28;2567;-70
2023/03/22 00:58:16;;;;;;;6.85;5.28;;;;;;;9.53;80.16;99306.16;346582;28;1136;-70
2023/03/22 00:58:29;;;;;;;7.60;5.20;;;;;;;9.47;80.65;99314.16;346174;28;1886;-70
2023/03/22 00:58:42;;;;;;;7.68;5.25;;;;;;;9.40;80.87;99310.09;345654;28;1765;-70
2023/03/22 00:58:54;;;;;;;6.70;5.45;;;;;;;9.32;81.22;99309.50;345991;28;1554;-70
2023/03/22 00:59:06;;;;;;;8.18;5.80;;;;;;;9.29;81.76;99309.59;346133;28;1066;-70
2023/03/22 00:59:18;;;;;;;8.10;5.82;;;;;;;9.30;81.70;99304.34;345512;28;1686;-70
2023/03/22 00:59:30;;;;;;;8.10;5.82;;;;;;;9.36;81.79;99308.50;345250;28;1826;-70
2023/03/22 00:59:43;;;;;;;7.25;5.90;;;;;;;9.31;81.83;99302.59;344784;28;1024;-70
2023/03/22 00:59:54;;;;;;;7.82;5.97;;;;;;;9.30;81.98;99313.88;345098;28;1166;-70
2023/03/22 01:00:12;;;;;;;8.57;6.75;;;;;;;9.34;82.16;99308.53;345218;28;1673;-70
2023/03/22 01:00:24;;;;;;;7.80;6.93;;;;;;;9.37;81.92;99304.97;344745;28;1687;-70
2023/03/22 01:00:36;;;;;;;7.72;6.93;;;;;;;9.41;81.99;99306.56;344679;28;1816;-70
2023/03/22 01:00:48;;;;;;;8.95;7.60;;;;;;;9.45;81.69;99312.53;346516;28;1368;-70
2023/03/22 01:01:00;;;;;;;9.15;7.82;;;;;;;9.44;81.66;99311.69;346412;28;1064;-70
2023/03/22 01:01:13;;;;;;;7.95;6.78;;;;;;;9.47;81.63;99306.38;346003;28;1111;-70
2023/03/22 01:01:26;;;;;;;7.68;6.60;;;;;;;9.34;81.44;99305.09;345205;28;1778;-70
2023/03/22 01:01:39;;;;;;;7.88;6.75;;;;;;;9.32;81.51;99306.91;345879;28;1353;-70